• Join FlightAware (Why Join?)
  • Login
  • US Flag 
01:28PM EDT


 

Airport Tracker/Info


-or-


 

Live Flight TrackerFlight Track Log ✈ EJA122 ✈ 13-Aug-2013 ✈ KFCI - KFKL

Flight Track Log - Related Links

Times and Time Zones

All times are in EDT time to prevent confusion due to time zone crossing. See the EJA122 flight status page for this flight to view local times or setup timezone preferences in your user account.

Time Position Orientation Groundspeed Altitude Reporting Facility
EDT Latitude Longitude Course Direction KTS MPH feet Rate Location/Type
02:57PM 37.4197 -77.6289 308° West 210 242 3,000  Level Washington Center
02:58PM 37.4564 -77.6875 308° West 224 258 5,800 2,700 Climbing Washington Center
02:59PM 37.5181 -77.7389 327° Northwest 237 273 8,600 2,400 Climbing Washington Center
03:00PM 37.5836 -77.7931 327° Northwest 262 302 10,600 1,860 Climbing Washington Center
03:01PM 37.6617 -77.8558 328° Northwest 292 336 12,300 1,740 Climbing Washington Center
03:02PM 37.7397 -77.9211 327° Northwest 324 373 14,200 1,620 Climbing Washington Center
03:03PM 37.8197 -77.9892 326° Northwest 337 388 15,700 1,560 Climbing Washington Center
03:04PM 37.8978 -78.0550 326° Northwest 342 394 17,400 1,620 Climbing Washington Center
03:05PM 37.9797 -78.1208 328° Northwest 342 394 19,000 1,440 Climbing Washington Center
03:06PM 38.0617 -78.1894 327° Northwest 342 394 20,400 1,500 Climbing Washington Center
03:07PM 38.1481 -78.2453 333° Northwest 342 394 22,000 1,500 Climbing Washington Center
03:08PM 38.2344 -78.3039 332° Northwest 342 394 23,400 1,200 Climbing Washington Center
03:09PM 38.3228 -78.3628 332° Northwest 347 399 24,500 1,020 Climbing Washington Center
03:10PM 38.4089 -78.4242 331° Northwest 347 399 25,500 960 Climbing Washington Center
03:11PM 38.4992 -78.4861 332° Northwest 347 399 26,500 960 Climbing Washington Center
03:12PM 38.5894 -78.5481 332° Northwest 352 405 27,500 720 Climbing Washington Center
03:13PM 38.6817 -78.6128 331° Northwest 358 412 28,000 240 Climbing Washington Center
03:14PM 38.7781 -78.6781 332° Northwest 376 433 28,000  Level Washington Center
03:15PM 38.8803 -78.7517 331° Northwest 397 457 28,000  Level Washington Center
03:16PM 38.9828 -78.8203 333° Northwest 409 471 28,000  Level Washington Center
03:17PM 39.0767 -78.8858 332° Northwest 409 471 28,000  Level Washington Center
03:18PM 39.1831 -78.9603 332° Northwest 414 476 28,000  Level Washington Center
03:20PM 39.3839 -79.0658 338° Northwest 456 525 28,000  Level Cleveland Center
03:21PM 39.4969 -79.1197 340° North 451 519 28,000  Level Cleveland Center
03:22PM 39.6125 -79.1792 338° Northwest 451 519 28,000  Level Cleveland Center
03:23PM 39.7278 -79.2336 340° North 446 513 28,000  Level Cleveland Center
03:24PM 39.8472 -79.2825 343° North 441 507 28,000  Level Cleveland Center
03:25PM 39.9744 -79.2989 354° North 441 507 28,000 -1,260 Level Cleveland Center
03:26PM 40.1039 -79.3183 353° North 455 524 25,500 -2,040 Descending Cleveland Center
03:27PM 40.2208 -79.3350 354° North 449 517 24,000 -960 Descending Cleveland Center
03:28PM 40.3442 -79.3519 354° North 442 509 23,600 -960 Descending Cleveland Center
03:29PM 40.4672 -79.3686 354° North 442 509 22,100 -1,380 Descending Cleveland Center
03:30PM 40.5861 -79.3828 355° North 442 509 20,900 -1,620 Descending Cleveland Center
03:31PM 40.7031 -79.4000 354° North 435 501 18,900 -2,100 Descending Cleveland Center
03:32PM 40.8158 -79.4117 356° North 420 483 16,700 -2,040 Descending Cleveland Center
03:33PM 40.9181 -79.4292 353° North 395 455 14,900 -1,800 Descending Cleveland Center
03:34PM 41.0061 -79.4769 338° Northwest 348 400 13,200 -1,800 Descending Cleveland Center
03:35PM 41.0797 -79.5556 321° Northwest 337 388 11,300 -1,500 Descending Cleveland Center
03:36PM 41.1578 -79.6372 322° Northwest 342 394 10,300 -1,080 Descending Cleveland Center
03:37PM 41.2208 -79.7025 322° Northwest 324 373 9,200 -1,800 Descending Cleveland Center
03:38PM 41.2775 -79.7597 323° Northwest 284 327 6,700 -2,400 Descending Cleveland Center
03:39PM 41.3425 -79.8281 322° Northwest 269 310 4,500 600 Descending Cleveland Center
03:40PM 41.3992 -79.8911 320° Northwest 269 310 8,000 1,740 Climbing Cleveland Center
03:41PM 41.4581 -79.9514 323° Northwest 269 310 8,000  Level Cleveland Center
03:42PM 41.5144 -80.0147 320° Northwest 269 310 8,000  Level Cleveland Center
03:43PM 41.5606 -80.0642 321° Northwest 269 310 8,000  Level Cleveland Center
03:44PM 41.5606 -80.0642 151° Southeast 269 310 8,000  Level Cleveland Center